createdAt,value
2019-05-28T00:00:09.124Z,9.17
2019-05-28T00:02:38.331Z,7.87
2019-05-28T00:05:07.542Z,7.83
2019-05-28T00:07:36.651Z,5.90
2019-05-28T00:10:06.321Z,5.37
2019-05-28T00:12:35.404Z,6.20
2019-05-28T00:15:06.250Z,5.60
2019-05-28T00:17:35.344Z,5.30
2019-05-28T00:20:05.651Z,5.57
2019-05-28T00:22:34.654Z,5.50
2019-05-28T00:25:04.374Z,5.70
2019-05-28T00:27:33.376Z,5.07
2019-05-28T00:30:18.638Z,5.40
2019-05-28T00:32:33.083Z,6.20
2019-05-28T00:35:02.028Z,5.23
2019-05-28T00:37:31.045Z,5.37
2019-05-28T00:40:02.590Z,5.70
2019-05-28T00:42:32.948Z,5.37
2019-05-28T00:45:02.031Z,5.90
2019-05-28T00:47:31.132Z,6.33
2019-05-28T00:50:00.146Z,5.57
2019-05-28T00:52:29.129Z,5.37
2019-05-28T00:54:58.067Z,5.80
2019-05-28T00:57:27.095Z,5.27
2019-05-28T00:59:56.305Z,5.40
2019-05-28T01:02:25.247Z,5.50
2019-05-28T01:04:54.240Z,5.43
2019-05-28T01:07:23.219Z,6.03
2019-05-28T01:09:52.182Z,5.63
2019-05-28T01:12:21.116Z,5.73
2019-05-28T01:14:50.075Z,5.53
2019-05-28T01:17:19.001Z,5.70
2019-05-28T01:19:47.965Z,5.87
2019-05-28T01:22:16.898Z,5.57
2019-05-28T01:24:45.858Z,5.80
2019-05-28T01:27:14.809Z,5.10
2019-05-28T01:29:43.744Z,6.37
2019-05-28T01:32:12.685Z,5.40
2019-05-28T01:34:41.646Z,6.03
2019-05-28T01:37:10.643Z,5.50
2019-05-28T01:39:39.583Z,5.43
2019-05-28T01:42:08.535Z,5.73
2019-05-28T01:44:37.472Z,5.07
2019-05-28T01:47:06.419Z,6.03
2019-05-28T01:49:35.354Z,5.87
2019-05-28T01:52:04.384Z,6.57
2019-05-28T01:54:33.318Z,5.47
2019-05-28T01:57:02.278Z,5.70
2019-05-28T01:59:31.280Z,5.60
2019-05-28T02:02:00.231Z,5.93
2019-05-28T02:04:29.162Z,5.73
2019-05-28T02:06:59.067Z,5.70
2019-05-28T02:09:28.000Z,5.60
2019-05-28T02:11:56.942Z,5.63
2019-05-28T02:14:25.887Z,5.67
2019-05-28T02:16:54.847Z,6.17
2019-05-28T02:19:23.786Z,5.77
2019-05-28T02:21:52.731Z,5.90
2019-05-28T02:24:21.665Z,6.87
2019-05-28T02:26:50.755Z,5.70
2019-05-28T02:29:19.748Z,5.77
2019-05-28T02:31:48.765Z,6.27
2019-05-28T02:34:17.679Z,6.03
2019-05-28T02:36:48.242Z,5.80
2019-05-28T02:39:17.179Z,5.97
2019-05-28T02:41:46.126Z,6.10
2019-05-28T02:44:15.077Z,5.70
2019-05-28T02:46:44.019Z,5.20
2019-05-28T02:49:12.945Z,6.00
2019-05-28T02:51:42.179Z,6.10
2019-05-28T02:54:11.639Z,5.90
2019-05-28T02:56:41.459Z,6.80
2019-05-28T02:59:11.931Z,6.60
2019-05-28T03:01:44.692Z,6.30
2019-05-28T03:04:12.247Z,6.70
2019-05-28T03:06:41.196Z,6.13
2019-05-28T03:09:10.217Z,6.93
2019-05-28T03:11:39.220Z,5.97
2019-05-28T03:14:08.199Z,6.37
2019-05-28T03:16:38.674Z,6.50
2019-05-28T03:19:08.584Z,7.03
2019-05-28T03:21:38.311Z,6.53
2019-05-28T03:24:07.828Z,6.50
2019-05-28T03:26:36.780Z,6.57
2019-05-28T03:29:05.887Z,6.40
2019-05-28T03:31:34.912Z,6.43
2019-05-28T03:34:03.851Z,6.53
2019-05-28T03:36:33.459Z,6.87
2019-05-28T03:39:02.773Z,6.70
2019-05-28T03:41:31.727Z,6.73
2019-05-28T03:44:00.737Z,7.33
2019-05-28T03:46:29.741Z,6.43
2019-05-28T03:48:58.673Z,7.50
2019-05-28T03:51:27.625Z,7.43
2019-05-28T03:53:56.567Z,7.90
2019-05-28T03:56:25.507Z,7.73
2019-05-28T03:58:54.459Z,7.03
2019-05-28T04:01:23.403Z,7.27
2019-05-28T04:03:52.347Z,7.00
2019-05-28T04:06:21.283Z,7.30
2019-05-28T04:08:50.232Z,7.47
2019-05-28T04:11:19.182Z,7.83
2019-05-28T04:13:48.208Z,8.13
2019-05-28T04:16:17.208Z,8.20
2019-05-28T04:18:46.154Z,8.77
2019-05-28T04:21:15.104Z,8.37
2019-05-28T04:23:44.139Z,8.80
2019-05-28T04:26:13.082Z,8.33
2019-05-28T04:28:42.023Z,8.73
2019-05-28T04:31:10.985Z,8.80
2019-05-28T04:33:41.018Z,9.33
2019-05-28T04:36:09.952Z,8.67
2019-05-28T04:38:38.906Z,8.80
2019-05-28T04:41:07.847Z,8.27
2019-05-28T04:43:36.790Z,7.97
2019-05-28T04:46:05.741Z,8.67
2019-05-28T04:48:34.696Z,8.37
2019-05-28T04:51:03.642Z,8.17
2019-05-28T04:53:32.597Z,7.20
2019-05-28T04:56:01.558Z,8.07
2019-05-28T04:58:30.565Z,7.93
2019-05-28T05:00:59.571Z,8.13
2019-05-28T05:03:29.675Z,8.87
2019-05-28T05:05:58.611Z,8.30
2019-05-28T05:08:27.635Z,7.80
2019-05-28T05:10:57.553Z,8.27
2019-05-28T05:13:26.527Z,8.40
2019-05-28T05:15:55.541Z,9.07
2019-05-28T05:18:24.513Z,8.37
2019-05-28T05:20:53.460Z,8.23
2019-05-28T05:23:22.433Z,8.37
2019-05-28T05:25:51.364Z,8.63
2019-05-28T05:28:20.326Z,8.20
2019-05-28T05:30:49.340Z,8.77
2019-05-28T05:33:43.033Z,8.00
2019-05-28T05:36:11.976Z,8.40
2019-05-28T05:38:40.944Z,8.90
2019-05-28T05:41:09.887Z,8.10
2019-05-28T05:43:38.948Z,8.10
2019-05-28T05:46:07.902Z,7.43
2019-05-28T05:48:36.868Z,7.70
2019-05-28T05:51:05.810Z,7.43
2019-05-28T05:53:34.769Z,6.90
2019-05-28T05:56:03.738Z,7.50
2019-05-28T05:58:32.739Z,8.50
2019-05-28T06:01:01.686Z,8.23
2019-05-28T06:03:40.455Z,7.83
2019-05-28T06:06:01.291Z,7.57
2019-05-28T06:08:30.249Z,8.13
2019-05-28T06:11:00.159Z,8.20
2019-05-28T06:13:29.104Z,7.37
2019-05-28T06:15:58.057Z,7.05
2019-05-28T06:18:27.012Z,7.33
2019-05-28T06:21:09.303Z,6.15
2019-05-28T06:23:26.615Z,6.22
2019-05-28T06:25:55.561Z,6.50
2019-05-28T06:28:24.500Z,6.00
2019-05-28T06:30:53.431Z,6.08
2019-05-28T06:33:22.388Z,5.67
2019-05-28T06:35:51.356Z,5.72
2019-05-28T06:38:20.588Z,5.97
2019-05-28T06:40:54.784Z,5.65
2019-05-28T06:43:23.749Z,5.53
2019-05-28T06:45:52.699Z,5.47
2019-05-28T06:48:21.652Z,5.08
2019-05-28T06:50:50.626Z,5.35
2019-05-28T06:53:19.622Z,5.62
2019-05-28T06:55:48.572Z,5.80
2019-05-28T06:58:18.496Z,4.97
2019-05-28T07:00:47.449Z,5.70
2019-05-28T07:03:16.383Z,5.05
2019-05-28T07:05:45.352Z,4.70
2019-05-28T07:08:15.234Z,4.87
2019-05-28T07:10:57.142Z,6.25
2019-05-28T07:13:14.836Z,5.10
2019-05-28T07:15:44.459Z,5.20
2019-05-28T07:18:13.393Z,6.22
2019-05-28T07:20:43.415Z,6.00
2019-05-28T07:23:12.377Z,5.12
2019-05-28T07:25:41.459Z,5.47
2019-05-28T07:28:14.116Z,5.45
2019-05-28T07:30:43.199Z,11.18
2019-05-28T07:33:12.229Z,8.58
2019-05-28T07:35:45.757Z,6.08
2019-05-28T07:38:11.832Z,5.50
2019-05-28T07:40:40.789Z,5.47
2019-05-28T07:43:09.727Z,5.00
2019-05-28T07:45:38.970Z,5.20
2019-05-28T07:48:07.982Z,5.30
2019-05-28T07:50:36.920Z,5.97
2019-05-28T07:53:05.856Z,4.93
2019-05-28T07:55:34.807Z,4.97
2019-05-28T07:58:03.816Z,4.33
2019-05-28T08:00:35.229Z,3.60
2019-05-28T08:03:04.839Z,3.60
2019-05-28T08:05:34.251Z,3.70
2019-05-28T08:08:04.370Z,3.40
2019-05-28T08:10:33.308Z,3.15
2019-05-28T08:13:04.002Z,3.37
2019-05-28T08:15:33.034Z,2.70
2019-05-28T08:18:01.975Z,2.73
2019-05-28T08:20:30.933Z,2.83
2019-05-28T08:22:59.871Z,2.67
2019-05-28T08:25:46.224Z,2.90
2019-05-28T08:28:16.415Z,2.60
2019-05-28T08:30:30.176Z,2.17
2019-05-28T08:32:59.126Z,2.47
2019-05-28T08:35:28.117Z,3.72
2019-05-28T08:37:57.063Z,4.28
2019-05-28T08:40:26.113Z,3.37
2019-05-28T08:42:55.131Z,2.75
2019-05-28T08:45:24.077Z,2.47
2019-05-28T08:47:53.008Z,2.65
2019-05-28T08:50:33.794Z,2.87
2019-05-28T08:52:52.576Z,2.37
2019-05-28T08:55:21.522Z,2.47
2019-05-28T08:57:50.502Z,2.45
2019-05-28T09:00:38.503Z,2.60
2019-05-28T09:03:08.477Z,2.65
2019-05-28T09:05:37.610Z,2.55
2019-05-28T09:08:06.543Z,2.80
2019-05-28T09:10:35.551Z,3.00
2019-05-28T09:13:04.621Z,3.00
2019-05-28T09:15:33.853Z,5.42
2019-05-28T09:18:03.210Z,5.92
2019-05-28T09:20:32.338Z,3.05
2019-05-28T09:23:01.269Z,3.17
2019-05-28T09:25:30.215Z,2.92
2019-05-28T09:27:59.155Z,3.45
2019-05-28T09:30:28.127Z,3.40
2019-05-28T09:32:57.243Z,2.92
2019-05-28T09:35:43.364Z,3.40
2019-05-28T09:37:57.871Z,3.47
2019-05-28T09:40:26.845Z,2.95
2019-05-28T09:42:55.772Z,2.58
2019-05-28T09:45:24.723Z,2.35
2019-05-28T09:47:55.330Z,2.70
2019-05-28T09:50:30.671Z,2.70
2019-05-28T09:52:55.581Z,2.50
2019-05-28T09:55:24.647Z,2.40
2019-05-28T09:57:53.606Z,2.75
2019-05-28T10:00:23.349Z,3.20
2019-05-28T10:02:52.361Z,2.05
2019-05-28T10:05:21.540Z,2.50
2019-05-28T10:07:50.488Z,2.67
2019-05-28T10:10:19.508Z,2.80
2019-05-28T10:12:48.520Z,2.92
2019-05-28T10:15:17.733Z,3.35
2019-05-28T10:17:46.702Z,3.20
2019-05-28T10:20:16.073Z,2.75
2019-05-28T10:22:45.024Z,3.05
2019-05-28T10:25:14.262Z,2.67
2019-05-28T10:27:59.172Z,3.05
2019-05-28T10:30:14.203Z,3.17
2019-05-28T10:32:43.195Z,2.77
2019-05-28T10:35:14.252Z,3.10
2019-05-28T10:37:43.247Z,3.08
2019-05-28T10:40:13.722Z,2.35
2019-05-28T10:42:44.251Z,2.85
2019-05-28T10:45:14.753Z,3.40
2019-05-28T10:47:43.720Z,3.20
2019-05-28T10:50:13.103Z,3.15
2019-05-28T10:52:42.137Z,2.98
2019-05-28T10:55:11.128Z,2.70
2019-05-28T10:57:40.148Z,2.08
2019-05-28T11:00:10.177Z,2.60
2019-05-28T11:02:39.124Z,2.45
2019-05-28T11:05:08.432Z,2.72
2019-05-28T11:07:37.403Z,2.87
2019-05-28T11:10:22.557Z,3.17
2019-05-28T11:12:38.483Z,3.42
2019-05-28T11:15:08.192Z,2.87
2019-05-28T11:17:37.212Z,3.15
2019-05-28T11:20:07.115Z,3.47
2019-05-28T11:22:36.062Z,4.28
2019-05-28T11:25:06.413Z,4.35
2019-05-28T11:27:35.372Z,3.98
2019-05-28T11:30:08.348Z,4.10
2019-05-28T11:32:37.289Z,4.22
2019-05-28T11:35:06.410Z,3.90
2019-05-28T11:37:36.398Z,4.55
2019-05-28T11:40:08.045Z,4.05
2019-05-28T11:42:36.986Z,4.25
2019-05-28T11:45:07.977Z,4.00
2019-05-28T11:47:38.486Z,4.30
2019-05-28T11:50:08.371Z,3.70
2019-05-28T11:52:37.410Z,4.42
2019-05-28T11:55:10.273Z,4.67
2019-05-28T11:57:38.588Z,4.60
2019-05-28T12:00:07.944Z,4.47
2019-05-28T12:02:36.932Z,4.40
2019-05-28T12:05:07.404Z,4.17
2019-05-28T12:07:36.343Z,3.85
2019-05-28T12:10:05.752Z,4.95
2019-05-28T12:12:36.351Z,4.45
2019-05-28T12:15:09.851Z,5.17
2019-05-28T12:17:43.585Z,3.87
2019-05-28T12:20:11.357Z,3.75
2019-05-28T12:22:40.751Z,3.58
2019-05-28T12:25:12.814Z,4.05
2019-05-28T12:27:41.763Z,3.40
2019-05-28T12:30:11.577Z,3.33
2019-05-28T12:32:40.588Z,3.60
2019-05-28T12:35:26.199Z,3.58
2019-05-28T12:37:48.751Z,3.95
2019-05-28T12:40:13.796Z,3.80
2019-05-28T12:42:42.783Z,3.33
2019-05-28T12:45:13.277Z,3.70
2019-05-28T12:47:42.241Z,4.12
2019-05-28T12:50:19.861Z,4.37
2019-05-28T12:52:46.506Z,3.72
2019-05-28T12:55:13.997Z,4.15
2019-05-28T12:57:42.936Z,3.92
2019-05-28T13:00:12.771Z,3.95
2019-05-28T13:02:41.791Z,3.95
2019-05-28T13:05:11.899Z,3.58
2019-05-28T13:07:40.851Z,3.75
2019-05-28T13:10:13.048Z,3.70
2019-05-28T13:12:41.591Z,3.70
2019-05-28T13:15:12.086Z,3.58
2019-05-28T13:17:42.588Z,3.20
2019-05-28T13:20:14.601Z,3.47
2019-05-28T13:22:43.691Z,3.37
2019-05-28T13:25:12.812Z,3.67
2019-05-28T13:27:41.755Z,3.70
2019-05-28T13:30:12.033Z,3.98
2019-05-28T13:32:41.626Z,3.42
2019-05-28T13:35:11.283Z,3.90
2019-05-28T13:37:41.295Z,3.50
2019-05-28T13:40:10.925Z,3.55
2019-05-28T13:42:39.861Z,3.25
2019-05-28T13:45:09.105Z,3.10
2019-05-28T13:47:38.080Z,3.40
2019-05-28T13:50:07.794Z,4.30
2019-05-28T13:52:36.736Z,4.10
2019-05-28T13:55:06.453Z,3.70
2019-05-28T13:57:39.317Z,3.70
2019-05-28T14:00:11.047Z,3.40
2019-05-28T14:02:45.498Z,3.90
2019-05-28T14:05:11.409Z,3.55
2019-05-28T14:07:40.379Z,3.83
2019-05-28T14:10:09.865Z,3.60
2019-05-28T14:12:40.230Z,3.80
2019-05-28T14:15:09.808Z,4.30
2019-05-28T14:17:39.084Z,4.97
2019-05-28T14:20:08.966Z,5.08
2019-05-28T14:22:38.405Z,5.20
2019-05-28T14:25:08.462Z,5.87
2019-05-28T14:27:37.409Z,5.97
2019-05-28T14:30:10.563Z,6.08
2019-05-28T14:32:39.499Z,6.40
2019-05-28T14:35:08.922Z,5.87
2019-05-28T14:37:37.868Z,6.50
2019-05-28T14:40:07.658Z,5.97
2019-05-28T14:42:36.591Z,6.20
2019-05-28T14:45:06.202Z,5.75
2019-05-28T14:47:35.246Z,6.63
2019-05-28T14:50:07.491Z,6.00
2019-05-28T14:52:39.179Z,6.33
2019-05-28T14:55:08.396Z,5.70
2019-05-28T14:57:37.413Z,5.47
2019-05-28T15:00:08.243Z,6.55
2019-05-28T15:02:37.183Z,5.85
2019-05-28T15:05:14.274Z,5.60
2019-05-28T15:07:55.528Z,6.25
2019-05-28T15:10:24.543Z,5.97
2019-05-28T15:12:53.515Z,6.50
2019-05-28T15:15:35.457Z,5.58
2019-05-28T15:17:53.236Z,6.20
2019-05-28T15:20:22.182Z,6.30
2019-05-28T15:22:51.147Z,6.12
2019-05-28T15:25:20.092Z,5.72
2019-05-28T15:27:49.045Z,5.50
2019-05-28T15:30:18.152Z,5.27
2019-05-28T15:32:47.244Z,5.43
2019-05-28T15:35:16.196Z,5.23
2019-05-28T15:37:45.142Z,5.63
2019-05-28T15:40:14.406Z,5.00
2019-05-28T15:42:43.426Z,6.20
2019-05-28T15:45:14.170Z,4.60
2019-05-28T15:47:44.892Z,4.85
2019-05-28T15:50:17.121Z,5.17
2019-05-28T15:52:47.440Z,5.70
2019-05-28T15:55:17.588Z,5.43
2019-05-28T15:57:46.519Z,5.13
2019-05-28T16:00:20.017Z,6.47
2019-05-28T16:02:49.028Z,4.80
2019-05-28T16:05:17.988Z,4.57
2019-05-28T16:07:46.921Z,4.23
2019-05-28T16:10:17.116Z,4.27
2019-05-28T16:12:46.044Z,6.17
2019-05-28T16:15:16.237Z,5.40
2019-05-28T16:17:45.181Z,4.57
2019-05-28T16:20:15.660Z,4.50
2019-05-28T16:22:44.697Z,4.10
2019-05-28T16:25:15.286Z,5.00
2019-05-28T16:27:44.209Z,4.33
2019-05-28T16:30:13.547Z,4.93
2019-05-28T16:32:42.494Z,4.57
2019-05-28T16:35:11.522Z,4.77
2019-05-28T16:37:40.449Z,4.87
2019-05-28T16:40:15.721Z,5.30
2019-05-28T16:42:40.374Z,6.93
2019-05-28T16:45:09.772Z,6.07
2019-05-28T16:47:38.705Z,5.77
2019-05-28T16:50:08.023Z,6.07
2019-05-28T16:52:36.967Z,6.87
2019-05-28T16:55:06.292Z,6.03
2019-05-28T16:57:35.326Z,6.77
2019-05-28T17:00:05.873Z,6.63
2019-05-28T17:02:35.355Z,6.73
2019-05-28T17:05:07.611Z,7.37
2019-05-28T17:07:36.615Z,6.83
2019-05-28T17:10:07.242Z,6.73
2019-05-28T17:12:36.314Z,7.80
2019-05-28T17:15:05.990Z,7.60
2019-05-28T17:17:35.462Z,8.50
2019-05-28T17:20:08.918Z,8.00
2019-05-28T17:22:37.931Z,8.20
2019-05-28T17:25:10.978Z,8.57
2019-05-28T17:27:37.804Z,8.47
2019-05-28T17:30:17.988Z,8.67
2019-05-28T17:32:38.431Z,8.50
2019-05-28T17:35:07.940Z,8.20
2019-05-28T17:37:37.012Z,7.60
2019-05-28T17:40:06.335Z,7.80
2019-05-28T17:42:35.360Z,7.20
2019-05-28T17:45:29.880Z,7.00
2019-05-28T17:47:58.843Z,5.83
2019-05-28T17:50:27.847Z,5.83
2019-05-28T17:52:56.789Z,4.87
2019-05-28T17:55:25.730Z,4.43
2019-05-28T17:57:54.667Z,3.53
2019-05-28T18:00:23.629Z,3.60
2019-05-28T18:02:52.551Z,3.03
2019-05-28T18:05:21.532Z,2.80
2019-05-28T18:07:50.459Z,2.60
2019-05-28T18:10:19.410Z,2.20
2019-05-28T18:12:48.688Z,2.40
2019-05-28T18:15:17.635Z,2.70
2019-05-28T18:17:46.569Z,2.07
2019-05-28T18:20:15.717Z,2.23
2019-05-28T18:22:44.655Z,1.90
2019-05-28T18:25:13.615Z,2.20
2019-05-28T18:27:42.566Z,2.33
2019-05-28T18:30:11.490Z,1.97
2019-05-28T18:32:40.448Z,2.20
2019-05-28T18:35:10.546Z,2.23
2019-05-28T18:37:39.626Z,2.47
2019-05-28T18:40:09.194Z,2.10
2019-05-28T18:42:38.272Z,2.13
2019-05-28T18:45:08.350Z,2.23
2019-05-28T18:47:37.698Z,2.67
2019-05-28T18:50:07.103Z,1.90
2019-05-28T18:52:36.047Z,2.10
2019-05-28T18:55:08.248Z,2.10
2019-05-28T18:57:37.229Z,1.77
2019-05-28T19:00:09.486Z,2.37
2019-05-28T19:02:40.068Z,1.83
2019-05-28T19:05:10.824Z,1.67
2019-05-28T19:07:39.770Z,2.03
2019-05-28T19:10:09.077Z,1.70
2019-05-28T19:12:38.065Z,2.13
2019-05-28T19:15:07.269Z,1.80
2019-05-28T19:17:37.530Z,1.63
2019-05-28T19:20:08.559Z,1.70
2019-05-28T19:22:37.513Z,1.83
2019-05-28T19:25:07.681Z,1.80
2019-05-28T19:27:36.664Z,1.73
2019-05-28T19:30:10.006Z,1.73
2019-05-28T19:32:39.632Z,1.43
2019-05-28T19:35:09.740Z,1.60
2019-05-28T19:37:38.853Z,1.43
2019-05-28T19:40:09.045Z,1.37
2019-05-28T19:42:40.566Z,1.67
2019-05-28T19:45:09.575Z,1.80
2019-05-28T19:47:38.680Z,2.00
2019-05-28T19:50:10.703Z,1.80
2019-05-28T19:52:41.303Z,1.60
2019-05-28T19:55:10.254Z,1.67
2019-05-28T19:57:39.210Z,1.90
2019-05-28T20:00:08.465Z,1.80
2019-05-28T20:02:38.010Z,1.60
2019-05-28T20:05:08.291Z,1.90
2019-05-28T20:07:37.249Z,1.90
2019-05-28T20:10:06.452Z,1.50
2019-05-28T20:12:35.419Z,1.67
2019-05-28T20:15:10.875Z,1.87
2019-05-28T20:17:39.880Z,1.87
2019-05-28T20:20:09.202Z,1.87
2019-05-28T20:22:39.118Z,1.63
2019-05-28T20:25:08.115Z,1.57
2019-05-28T20:27:37.099Z,1.80
2019-05-28T20:30:07.202Z,1.63
2019-05-28T20:32:39.188Z,1.60
2019-05-28T20:35:10.142Z,1.50
2019-05-28T20:37:39.162Z,1.80
2019-05-28T20:40:08.555Z,1.57
2019-05-28T20:42:37.980Z,1.83
2019-05-28T20:45:08.603Z,2.23
2019-05-28T20:47:37.677Z,1.60
2019-05-28T20:50:07.599Z,1.83
2019-05-28T20:52:36.770Z,1.57
2019-05-28T20:55:09.132Z,1.70
2019-05-28T20:57:38.090Z,1.60
2019-05-28T21:00:07.682Z,1.70
2019-05-28T21:02:36.713Z,1.90
2019-05-28T21:05:07.315Z,1.80
2019-05-28T21:07:36.272Z,2.00
2019-05-28T21:10:06.214Z,2.00
2019-05-28T21:12:44.047Z,1.70
2019-05-28T21:15:08.873Z,1.60
2019-05-28T21:17:37.831Z,1.50
2019-05-28T21:20:10.121Z,1.47
2019-05-28T21:22:39.087Z,1.60
2019-05-28T21:25:08.295Z,1.70
2019-05-28T21:27:37.291Z,1.63
2019-05-28T21:33:01.555Z,1.60
2019-05-28T21:35:30.484Z,1.57
2019-05-28T21:37:59.433Z,1.90
2019-05-28T21:40:28.373Z,1.23
2019-05-28T21:43:04.759Z,1.40
2019-05-28T21:45:27.962Z,1.77
2019-05-28T21:47:56.948Z,1.60
2019-05-28T21:50:25.895Z,1.70
2019-05-28T21:52:54.977Z,1.70
2019-05-28T21:55:23.960Z,1.80
2019-05-28T21:57:53.578Z,1.50
2019-05-28T22:00:28.679Z,1.47
2019-05-28T22:02:59.246Z,1.73
2019-05-28T22:05:28.209Z,1.47
2019-05-28T22:07:57.349Z,1.67
2019-05-28T22:10:26.362Z,2.23
2019-05-28T22:12:55.647Z,2.00
2019-05-28T22:15:24.623Z,2.03
2019-05-28T22:17:53.564Z,1.63
2019-05-28T22:20:22.509Z,1.43
2019-05-28T22:22:51.466Z,1.67
2019-05-28T22:25:20.407Z,1.70
2019-05-28T22:27:49.368Z,1.63
2019-05-28T22:30:18.564Z,1.50
2019-05-28T22:32:47.507Z,2.07
2019-05-28T22:35:16.443Z,1.83
2019-05-28T22:37:45.406Z,1.50
2019-05-28T22:40:14.408Z,1.50
2019-05-28T22:42:43.508Z,1.70
2019-05-28T22:45:12.527Z,1.40
2019-05-28T22:47:41.474Z,1.80
2019-05-28T22:50:21.893Z,1.60
2019-05-28T22:52:41.560Z,1.73
2019-05-28T22:55:10.507Z,1.47
2019-05-28T22:57:39.445Z,2.17
2019-05-28T23:00:08.821Z,1.70
2019-05-28T23:02:37.875Z,1.60
2019-05-28T23:05:07.293Z,2.00
2019-05-28T23:07:36.330Z,1.53
2019-05-28T23:10:05.766Z,1.80
2019-05-28T23:12:34.706Z,1.30
2019-05-28T23:15:06.022Z,1.80
2019-05-28T23:17:35.033Z,1.90
2019-05-28T23:20:08.887Z,1.97
2019-05-28T23:22:37.954Z,1.73
2019-05-28T23:25:07.621Z,2.10
2019-05-28T23:27:36.591Z,1.47
2019-05-28T23:30:18.816Z,2.20
2019-05-28T23:32:36.659Z,2.33
2019-05-28T23:35:06.629Z,2.03
2019-05-28T23:37:35.586Z,2.00
2019-05-28T23:40:07.046Z,1.70
2019-05-28T23:42:37.002Z,2.03
2019-05-28T23:45:07.754Z,1.97
2019-05-28T23:47:36.862Z,1.87
2019-05-28T23:50:06.743Z,2.47
2019-05-28T23:52:35.812Z,2.23
2019-05-28T23:55:05.754Z,1.90
2019-05-28T23:57:34.747Z,2.20
